Messwerte Saltillo

Temperatur

Temperatur
°C
1563505200 22.00 22.00
1563508800 23.00 23.00 25
1563512400 0.00 0.00
1563516000 1.00 1.00
1563519600 2.00 2.00 23
1563523200 3.00 3.00
1563526800 4.00 4.00
1563530400 5.00 5.00 22
1563534000 6.00 6.00 21
1563537600 7.00 7.00 21
1563541200 8.00 8.00 21
1563544800 9.00 9.00 23
1563548400 10.00 10.00 26
1563552000 11.00 11.00 28
1563555600 12.00 12.00 29
1563559200 13.00 13.00 30
1563562800 14.00 14.00 31
1563566400 15.00 15.00 31
1563570000 16.00 16.00 31
1563573600 17.00 17.00 30
1563577200 18.00 18.00 30
1563580800 19.00 19.00 23
1563584400 20.00 20.00 25
1563588000 21.00 21.00 21

Aktuellste Messwerte

Wettercharakter
Wetter: klar
Temperatur
21 °C
Feuchtigkeit
55 %
Wind
15 km/hWindrichtung: Nordost
Luftdruck
1021 hPa
Messzeit: 19. Juli 2019, 22.00Datenquelle: METAR

Weitere Messstationen in der Nähe

Messstation Temperatur Entfernung
Monterrey 31 °C 83 km
Monterrey 31 °C 97 km
Monclova - 173 km
Torreón 31 °C 242 km
Ciudad Victoria - 264 km
Nuevo Laredo - 271 km
Reynosa 28 °C 289 km

Wind

Windrichtung Böen Mittelwind
° km/h km/h
1563505200 22.00 21.00 - 22.00
1563508800 23.00 22.00 - 23.00 0
1563512400 0.00 23.00 - 0.00
1563516000 1.00 0.00 - 1.00
1563519600 2.00 1.00 - 2.00 0
1563523200 3.00 2.00 - 3.00
1563526800 4.00 3.00 - 4.00
1563530400 5.00 4.00 - 5.00 180° 20
1563534000 6.00 5.00 - 6.00 160° 20
1563537600 7.00 6.00 - 7.00 180° 15
1563541200 8.00 7.00 - 8.00 180° 10
1563544800 9.00 8.00 - 9.00 180° 10
1563548400 10.00 9.00 - 10.00 180° 15
1563552000 11.00 10.00 - 11.00 150° 20
1563555600 12.00 11.00 - 12.00 180° 10
1563559200 13.00 12.00 - 13.00 180° 15
1563562800 14.00 13.00 - 14.00 0
1563566400 15.00 14.00 - 15.00 40° 30
1563570000 16.00 15.00 - 16.00 360° 30
1563573600 17.00 16.00 - 17.00 20° 30
1563577200 18.00 17.00 - 18.00 360° 30
1563580800 19.00 18.00 - 19.00 90° 30
1563584400 20.00 19.00 - 20.00 40° 30
1563588000 21.00 20.00 - 21.00 90° 30

Ihre Wetterstation

Fehlt Ihre Wetterstation auf unserem Portal?

Schreiben Sie an network@meteonews.ch

Klima

Wann ist es am wärmsten? Wann regnet es am wenigsten? Unsere Klimadaten geben Auskunft.